Main page
METAR-TAF:

METAR-TAF

Airports :

Baghdad International Airport

Baghdad, Iraq

latitude: 33-15-45N, longitude: 44-14-04E, elevation: 35 m

Current weather observation

The report was made 14 minutes ago, at 06:30 UTC
Wind 13 kt from the West/Northwest
Temperature 35°C
Humidity 37%
Pressure 1000 hPa
Visibility 10 km or more
no clouds below 1500 m and no cumulonimbus

METAR: ORBI 180630Z 29013KT CAVOK 35/18 Q1000

Time: 09:44 (06:44 UTC)

Forecast

The report was made 2 hours and 44 minutes ago, at 04:00 UTC
Forecast valid from 18 at 06 UTC to 19 at 06 UTC
Wind 15 kt from the Northwest
Visibility: 8000 m
Becoming
from 18 at 14 UTC to 18 at 16 UTC
Wind 8 kt from the West/Northwest

TAF: ORBI 180400Z 1806/1906 31015KT 8000 NSC BECMG 1814/1816 30008KT

Weather observations and forecasts of more than 4000 airports (METAR and TAF reports).

The available stations are represented by yellow and red dots on the map.

Hover mouse over dot to see the name of the station.

Then click to see weather observations and forecasts.

To change the map : click on the green buttons with a black cross to zoom in, on the green button with a dash to zoom out, or on the green arrows for adjacent maps.


METAR-TAF: